Time;durP1;ratioP1;P1;durP2;ratioP2;P2;SDS_P1;SDS_P2;PMS_P1;PMS_P2;Temp;Humidity;BMP_temperature;BMP_pressure;BME280_temperature;BME280_humidity;BME280_pressure;Samples;Min_cycle;Max_cycle;Signal;HPM_P1;HPM_P2
2022/06/17 00:02:42;;;;;;;13.85;9.82;;;;;;;16.08;100.00;102210.50;5072087;28;20497;-79
2022/06/17 00:08:33;;;;;;;15.48;11.05;;;;;;;15.98;100.00;102207.44;5071815;28;20289;-77
2022/06/17 00:10:58;;;;;;;17.20;10.75;;;;;;;15.94;100.00;102207.06;5054097;28;20086;-75
2022/06/17 00:16:46;;;;;;;13.73;10.55;;;;;;;15.91;100.00;102207.50;5071971;28;20121;-76
2022/06/17 00:19:13;;;;;;;13.52;10.18;;;;;;;15.85;100.00;102199.41;5070895;28;20052;-76
2022/06/17 00:21:42;;;;;;;11.43;9.70;;;;;;;15.76;100.00;102215.03;5071696;28;20058;-75
2022/06/17 00:24:20;;;;;;;13.80;10.75;;;;;;;15.73;100.00;102213.59;5069793;28;20049;-77
2022/06/17 00:26:45;;;;;;;13.93;10.65;;;;;;;15.78;100.00;102221.03;5071580;28;20069;-75
2022/06/17 00:29:16;;;;;;;17.17;12.38;;;;;;;15.77;100.00;102225.59;5070804;28;20040;-75
2022/06/17 00:35:04;;;;;;;15.55;10.85;;;;;;;15.49;100.00;102214.28;5071525;28;20047;-77
2022/06/17 00:37:30;;;;;;;15.63;10.70;;;;;;;15.40;100.00;102204.78;5071545;28;20032;-76
2022/06/17 00:39:55;;;;;;;22.17;11.35;;;;;;;15.32;100.00;102210.38;5070008;28;20036;-76
2022/06/17 00:42:21;;;;;;;17.05;11.90;;;;;;;15.34;100.00;102219.09;5070552;28;20130;-75
2022/06/17 00:44:53;;;;;;;18.70;12.32;;;;;;;15.37;100.00;102226.75;5071579;28;20031;-75
2022/06/17 00:50:46;;;;;;;18.05;11.90;;;;;;;15.31;100.00;102219.50;5075197;28;20491;-75
2022/06/17 00:53:19;;;;;;;17.92;12.95;;;;;;;15.19;100.00;102213.94;5056292;28;20052;-77
2022/06/17 00:55:52;;;;;;;17.63;11.80;;;;;;;15.08;100.00;102210.03;5074807;28;20036;-76
2022/06/17 00:58:24;;;;;;;19.90;12.40;;;;;;;15.05;100.00;102207.78;5073802;28;20051;-77
2022/06/17 01:00:54;;;;;;;18.92;13.57;;;;;;;15.08;100.00;102209.22;5074821;28;20036;-77
2022/06/17 01:03:23;;;;;;;17.05;13.70;;;;;;;15.11;100.00;102222.25;5056585;28;20178;-76
2022/06/17 01:06:05;;;;;;;19.15;13.30;;;;;;;15.14;100.00;102209.19;5076775;28;20465;-75
2022/06/17 01:15:05;;;;;;;19.15;14.05;;;;;;;15.13;100.00;102221.00;5074754;28;20074;-75
2022/06/17 01:17:31;;;;;;;20.63;12.75;;;;;;;15.10;100.00;102218.75;5076371;28;20036;-75
2022/06/17 01:23:18;;;;;;;21.67;13.90;;;;;;;15.02;100.00;102210.84;5074399;28;20438;-75
2022/06/17 01:25:45;;;;;;;21.17;14.75;;;;;;;15.01;100.00;102216.47;5074349;28;20032;-76
2022/06/17 01:28:14;;;;;;;25.73;16.02;;;;;;;14.92;100.00;102202.38;5055571;28;20044;-77
2022/06/17 01:34:01;;;;;;;26.48;17.42;;;;;;;14.87;100.00;102199.50;5074638;28;20059;-76
2022/06/17 01:36:29;;;;;;;21.45;15.90;;;;;;;14.83;100.00;102199.09;5074235;28;20020;-76
2022/06/17 01:38:56;;;;;;;28.58;17.90;;;;;;;14.80;100.00;102206.75;5073187;28;20037;-76
2022/06/17 01:41:30;;;;;;;26.90;17.58;;;;;;;14.77;100.00;102207.19;5074217;28;20056;-79
2022/06/17 01:44:00;;;;;;;31.15;20.05;;;;;;;14.78;100.00;102201.59;5055943;28;20056;-78
2022/06/17 01:46:32;;;;;;;29.15;20.02;;;;;;;14.79;100.00;102211.31;5073304;28;20449;-79
2022/06/17 01:49:03;;;;;;;26.60;19.92;;;;;;;14.79;100.00;102210.50;5074117;28;20052;-79
2022/06/17 01:51:32;;;;;;;27.67;19.58;;;;;;;14.77;100.00;102216.09;5073132;28;20149;-78
2022/06/17 01:54:02;;;;;;;27.15;17.10;;;;;;;14.74;100.00;102218.34;5073896;28;20133;-78
2022/06/17 01:59:58;;;;;;;27.60;19.38;;;;;;;14.62;100.00;102211.94;5073640;28;20128;-76
2022/06/17 02:05:50;;;;;;;29.10;19.95;;;;;;;14.52;100.00;102217.75;5073662;28;20047;-76
2022/06/17 02:08:15;;;;;;;27.27;19.95;;;;;;;14.47;100.00;102207.59;5073589;28;20090;-77
2022/06/17 02:10:44;;;;;;;33.45;19.58;;;;;;;14.47;100.00;102210.28;5073094;28;20485;-77
2022/06/17 02:16:30;;;;;;;28.30;19.30;;;;;;;14.47;100.00;102204.06;5074005;28;20047;-79
2022/06/17 02:18:56;;;;;;;31.13;20.00;;;;;;;14.49;100.00;102208.22;5055578;28;20107;-78
2022/06/17 02:24:43;;;;;;;30.45;20.90;;;;;;;14.51;100.00;102210.69;5073546;28;20432;-77
2022/06/17 02:27:11;;;;;;;35.13;22.27;;;;;;;14.51;100.00;102214.22;5071597;28;20040;-77
2022/06/17 02:29:40;;;;;;;33.22;23.10;;;;;;;14.47;100.00;102215.66;5072340;28;20086;-78
2022/06/17 02:32:07;;;;;;;34.78;23.70;;;;;;;14.54;100.00;102207.59;5054937;28;20029;-77
2022/06/17 02:34:35;;;;;;;35.92;24.13;;;;;;;14.58;100.00;102211.53;5073165;28;20036;-77
2022/06/17 02:37:06;;;;;;;42.05;23.13;;;;;;;14.55;100.00;102204.69;5072064;28;20374;-77
2022/06/17 02:39:34;;;;;;;39.63;25.17;;;;;;;14.56;100.00;102200.97;5054828;28;20397;-78
2022/06/17 02:41:59;;;;;;;37.17;23.95;;;;;;;14.61;100.00;102202.19;5073160;28;20389;-77
2022/06/17 02:44:30;;;;;;;37.93;25.13;;;;;;;14.56;100.00;102203.66;5072230;28;20106;-78
2022/06/17 02:46:57;;;;;;;40.65;26.00;;;;;;;14.60;100.00;102208.63;5071772;28;20278;-77
2022/06/17 02:52:45;;;;;;;41.38;25.50;;;;;;;14.67;100.00;102198.66;5073400;28;20055;-77
2022/06/17 02:55:29;;;;;;;37.40;23.42;;;;;;;14.62;100.00;102203.84;5072942;28;20036;-77
2022/06/17 02:58:06;;;;;;;47.90;26.98;;;;;;;14.62;100.00;102210.06;5072155;28;20127;-78
2022/06/17 03:03:55;;;;;;;45.17;26.85;;;;;;;14.63;100.00;102208.19;5072958;28;20047;-77
2022/06/17 03:06:33;;;;;;;49.90;29.20;;;;;;;14.62;100.00;102210.06;5072833;28;20029;-77
2022/06/17 03:09:01;;;;;;;54.13;29.65;;;;;;;14.65;100.00;102200.75;5070343;28;20032;-78
2022/06/17 03:15:09;;;;;;;47.45;28.60;;;;;;;14.70;100.00;102209.84;5072928;28;20047;-77
2022/06/17 03:17:41;;;;;;;46.47;27.15;;;;;;;14.68;100.00;102216.47;5072530;28;20039;-75
2022/06/17 03:20:16;;;;;;;49.95;30.58;;;;;;;14.64;100.00;102209.84;5071631;28;20472;-76
2022/06/17 03:26:14;;;;;;;51.63;30.08;;;;;;;14.64;100.00;102215.25;5072302;28;20047;-75
2022/06/17 03:28:45;;;;;;;56.47;30.38;;;;;;;14.65;100.00;102216.91;5072269;28;20469;-75
2022/06/17 03:31:22;;;;;;;49.22;28.50;;;;;;;14.74;100.00;102229.94;5072282;28;20032;-75
2022/06/17 03:33:56;;;;;;;50.13;31.13;;;;;;;14.82;100.00;102224.38;5071928;28;20040;-75
2022/06/17 03:36:32;;;;;;;56.55;31.67;;;;;;;14.88;100.00;102228.09;5072211;28;20036;-76
2022/06/17 03:39:00;;;;;;;49.22;29.80;;;;;;;14.97;100.00;102234.91;5053590;28;20051;-76
2022/06/17 03:41:50;;;;;;;46.22;28.02;;;;;;;15.06;100.00;102247.16;5072049;28;20036;-76
2022/06/17 03:44:22;;;;;;;46.90;27.38;;;;;;;15.09;100.00;102235.94;5053305;28;20048;-76
2022/06/17 03:47:04;;;;;;;53.43;31.67;;;;;;;15.27;98.63;102242.53;5072050;28;20025;-75
2022/06/17 03:49:41;;;;;;;56.53;30.77;;;;;;;15.38;98.57;102248.13;5072032;28;20082;-78
2022/06/17 03:52:16;;;;;;;57.45;33.47;;;;;;;15.41;97.78;102250.38;5065687;28;20104;-76
2022/06/17 03:54:41;;;;;;;59.58;33.95;;;;;;;15.54;97.75;102248.69;5071894;28;20024;-76
2022/06/17 03:57:10;;;;;;;55.63;30.90;;;;;;;15.61;99.74;102247.66;5053589;28;20051;-75
2022/06/17 03:59:38;;;;;;;57.67;32.25;;;;;;;15.62;98.25;102243.94;5071771;28;20033;-76
2022/06/17 04:02:09;;;;;;;62.53;32.17;;;;;;;15.66;99.25;102249.72;5071145;28;20032;-76
2022/06/17 04:04:38;;;;;;;61.50;34.10;;;;;;;15.63;98.42;102247.47;5071907;28;20029;-76
2022/06/17 04:10:29;;;;;;;59.13;32.55;;;;;;;15.74;100.00;102236.81;5071818;28;20047;-76
2022/06/17 04:12:55;;;;;;;55.60;32.95;;;;;;;15.77;100.00;102240.94;5071605;28;20128;-75
2022/06/17 04:15:39;;;;;;;60.90;32.53;;;;;;;15.84;100.00;102244.44;5053594;28;20088;-76
2022/06/17 04:18:04;;;;;;;61.75;35.83;;;;;;;15.89;100.00;102241.09;5070353;28;20028;-76
2022/06/17 04:20:45;;;;;;;59.35;34.03;;;;;;;15.90;98.72;102238.22;5070762;28;20036;-76
2022/06/17 04:26:36;;;;;;;61.22;34.22;;;;;;;15.85;99.52;102229.91;5075558;28;20385;-78
2022/06/17 04:29:05;;;;;;;66.30;35.20;;;;;;;15.84;99.75;102219.34;5074948;28;20035;-77
2022/06/17 04:34:52;;;;;;;64.80;34.63;;;;;;;15.90;100.00;102231.97;5075225;28;20043;-76
2022/06/17 04:37:20;;;;;;;70.25;37.13;;;;;;;15.95;98.49;102227.59;5075123;28;20107;-76
2022/06/17 04:39:53;;;;;;;66.95;36.30;;;;;;;15.99;98.45;102214.50;5074128;28;20041;-76
2022/06/17 04:42:25;;;;;;;67.03;37.53;;;;;;;15.97;100.00;102209.31;5056583;28;20187;-76
2022/06/17 04:44:51;;;;;;;69.47;38.50;;;;;;;15.99;100.00;102218.03;5074271;28;20069;-77
2022/06/17 04:47:20;;;;;;;68.07;38.03;;;;;;;16.04;100.00;102214.69;5074761;28;20441;-77
2022/06/17 04:49:53;;;;;;;74.25;38.53;;;;;;;16.09;99.71;102202.19;5074148;28;20496;-77
2022/06/17 04:52:21;;;;;;;71.88;37.63;;;;;;;16.24;99.30;102212.69;5074775;28;20139;-77
2022/06/17 04:54:47;;;;;;;65.15;37.17;;;;;;;16.25;99.38;102198.16;5074689;28;20058;-76
2022/06/17 05:00:33;;;;;;;65.00;37.50;;;;;;;16.41;96.79;102194.91;5074749;28;20040;-77
2022/06/17 05:02:59;;;;;;;79.17;38.93;;;;;;;16.51;97.21;102193.59;5056049;28;20036;-76
2022/06/17 05:05:31;;;;;;;68.38;38.60;;;;;;;16.61;95.87;102202.03;5074627;28;20278;-76
2022/06/17 05:11:31;;;;;;;72.95;38.90;;;;;;;16.83;95.96;102206.03;5074820;28;20059;-77
2022/06/17 05:14:22;;;;;;;66.93;37.20;;;;;;;16.94;94.36;102204.44;5073716;28;20507;-77
2022/06/17 05:16:47;;;;;;;75.40;39.30;;;;;;;17.09;93.72;102210.34;5074363;28;20024;-77
2022/06/17 05:19:13;;;;;;;66.18;36.42;;;;;;;17.12;93.63;102207.19;5074391;28;20028;-76
2022/06/17 05:25:02;;;;;;;64.35;36.03;;;;;;;17.22;92.58;102193.16;5074318;28;20278;-77
2022/06/17 05:30:53;;;;;;;74.38;36.38;;;;;;;17.27;91.62;102207.63;5074516;28;20055;-77
2022/06/17 05:33:20;;;;;;;71.97;38.08;;;;;;;17.32;92.45;102193.44;5073159;28;20049;-76
2022/06/17 05:39:07;;;;;;;78.95;40.03;;;;;;;17.34;92.60;102210.25;5074622;28;20047;-79
2022/06/17 05:44:54;;;;;;;66.85;36.28;;;;;;;17.73;90.20;102200.06;5074444;28;20101;-80
2022/06/17 05:50:42;;;;;;;67.47;36.88;;;;;;;18.19;88.98;102181.25;5074703;28;20423;-81
2022/06/17 05:56:29;;;;;;;77.72;37.78;;;;;;;18.40;87.93;102201.56;5074101;28;20043;-78
2022/06/17 06:05:42;;;;;;;71.70;37.50;;;;;;;19.31;83.10;102181.19;5073880;28;20035;-79
2022/06/17 06:08:08;;;;;;;60.05;32.47;;;;;;;19.27;80.63;102168.34;5071907;28;20382;-79
2022/06/17 06:13:55;;;;;;;74.75;34.40;;;;;;;19.15;79.33;102162.97;5073837;28;20031;-75
2022/06/17 06:19:42;;;;;;;77.00;37.22;;;;;;;18.96;80.98;102170.41;5073986;28;20055;-75
2022/06/17 06:25:30;;;;;;;74.47;35.10;;;;;;;19.12;83.00;102166.97;5073424;28;20093;-75
2022/06/17 06:31:29;;;;;;;72.63;35.20;;;;;;;19.53;79.25;102184.13;5073331;28;20059;-76
2022/06/17 06:37:16;;;;;;;65.38;32.70;;;;;;;19.67;77.73;102187.41;5072517;28;20081;-75
2022/06/17 06:39:41;;;;;;;66.30;33.15;;;;;;;19.68;79.30;102186.34;5072735;28;20021;-76
2022/06/17 06:45:32;;;;;;;56.53;31.42;;;;;;;19.88;75.59;102203.00;5071744;28;20786;-75
2022/06/17 06:48:00;;;;;;;61.83;29.67;;;;;;;19.92;74.80;102193.28;5074513;28;20047;-75
2022/06/17 06:50:28;;;;;;;56.25;29.65;;;;;;;20.01;75.49;102188.31;5054669;28;20037;-74
2022/06/17 06:56:15;;;;;;;63.28;29.50;;;;;;;20.53;74.68;102180.81;5073008;28;20044;-74
2022/06/17 07:02:03;;;;;;;63.30;30.52;;;;;;;22.16;69.40;102196.53;5072516;28;20098;-75
2022/06/17 07:07:50;;;;;;;54.13;28.45;;;;;;;24.26;59.84;102195.41;5072503;28;20047;-74
2022/06/17 07:10:22;;;;;;;53.47;28.50;;;;;;;25.00;58.62;102200.34;5071450;28;20392;-74
2022/06/17 07:16:11;;;;;;;45.97;23.27;;;;;;;26.58;48.77;102198.63;5072111;28;20036;-75
2022/06/17 07:18:37;;;;;;;41.72;22.60;;;;;;;26.64;49.45;102197.50;5071271;28;20036;-75
2022/06/17 07:21:08;;;;;;;39.75;22.90;;;;;;;26.59;47.81;102186.53;5054549;28;20040;-74
2022/06/17 07:23:37;;;;;;;43.45;23.10;;;;;;;26.45;47.02;102189.16;5070627;28;20040;-76
2022/06/17 07:26:11;;;;;;;40.28;23.15;;;;;;;26.38;48.77;102186.75;5072172;28;20060;-75
2022/06/17 07:28:36;;;;;;;30.20;20.38;;;;;;;26.66;48.32;102179.63;5070977;28;20564;-75
2022/06/17 07:31:01;;;;;;;28.20;18.13;;;;;;;26.64;46.83;102186.53;5070611;28;20115;-74
2022/06/17 07:33:29;;;;;;;30.05;17.80;;;;;;;26.88;46.74;102178.28;5071660;28;20036;-75
2022/06/17 07:42:02;;;;;;;28.42;16.08;;;;;;;26.14;45.78;102189.38;5072111;28;20043;-76
2022/06/17 07:44:27;;;;;;;23.70;15.70;;;;;;;26.77;45.52;102192.13;5071524;28;20039;-76
2022/06/17 07:50:19;;;;;;;28.05;15.05;;;;;;;28.66;42.09;102213.22;5071847;28;20768;-75
2022/06/17 07:52:45;;;;;;;23.75;14.10;;;;;;;29.66;39.78;102202.41;5071220;28;20048;-75
2022/06/17 07:55:11;;;;;;;29.80;16.77;;;;;;;30.07;36.53;102198.72;5071481;28;20472;-75
2022/06/17 07:57:36;;;;;;;26.50;14.45;;;;;;;30.52;38.11;102199.53;5070934;28;20080;-76
2022/06/17 08:00:05;;;;;;;25.58;14.15;;;;;;;31.35;35.94;102191.47;5071319;28;20043;-75
2022/06/17 08:02:30;;;;;;;23.15;12.25;;;;;;;31.91;33.35;102189.75;5070411;28;20571;-76
2022/06/17 08:04:56;;;;;;;21.00;12.60;;;;;;;32.01;33.08;102193.00;5053614;28;20036;-75
2022/06/17 08:10:42;;;;;;;20.45;11.30;;;;;;;31.86;32.02;102207.34;5071393;28;20074;-77
2022/06/17 08:16:30;;;;;;;18.27;12.35;;;;;;;31.78;33.17;102213.69;5071414;28;20144;-78
2022/06/17 08:18:55;;;;;;;21.67;11.10;;;;;;;32.89;32.91;102209.13;5071347;28;20103;-77
2022/06/17 08:21:20;;;;;;;24.27;11.27;;;;;;;33.49;30.11;102221.06;5070334;28;20048;-76
2022/06/17 08:23:46;;;;;;;20.83;10.60;;;;;;;33.45;30.29;102220.13;5070967;28;20302;-76
2022/06/17 08:26:11;;;;;;;16.85;10.55;;;;;;;33.54;29.36;102223.66;5069179;28;20291;-74
2022/06/17 08:28:38;;;;;;;25.88;10.38;;;;;;;33.21;29.57;102215.19;5071045;28;20033;-78
2022/06/17 08:31:03;;;;;;;19.60;10.00;;;;;;;32.83;30.65;102217.97;5070311;28;20044;-77
2022/06/17 08:36:52;;;;;;;31.88;10.45;;;;;;;33.46;27.82;102194.00;5071080;28;20627;-77
2022/06/17 08:39:17;;;;;;;20.67;9.45;;;;;;;33.19;29.34;102189.75;5052920;28;20024;-77
2022/06/17 08:42:03;;;;;;;16.45;8.48;;;;;;;32.88;30.19;102185.34;5070862;28;20036;-77
2022/06/17 08:44:46;;;;;;;19.83;8.27;;;;;;;31.40;29.58;102192.13;5065646;28;20052;-76
2022/06/17 08:47:17;;;;;;;19.10;9.85;;;;;;;31.09;30.37;102186.66;5069643;28;20028;-77
2022/06/17 08:50:05;;;;;;;23.70;9.50;;;;;;;31.21;31.26;102185.25;5070247;28;20044;-78
2022/06/17 08:56:05;;;;;;;16.45;8.77;;;;;;;30.56;34.65;102196.94;5071191;28;20082;-74
2022/06/17 08:58:54;;;;;;;18.17;8.50;;;;;;;31.09;32.70;102197.72;5070821;28;20033;-74
2022/06/17 09:01:43;;;;;;;18.77;9.20;;;;;;;31.64;30.48;102197.22;5063853;28;20484;-75
2022/06/17 09:04:27;;;;;;;18.45;9.38;;;;;;;32.80;30.54;102204.78;5069227;28;20477;-74
2022/06/17 09:07:33;;;;;;;28.52;9.68;;;;;;;33.11;28.71;102204.47;5070093;28;20055;-74
2022/06/17 09:10:16;;;;;;;15.73;9.60;;;;;;;33.29;28.06;102207.97;5074074;28;20081;-73
2022/06/17 09:13:00;;;;;;;29.83;9.45;;;;;;;34.50;28.57;102210.63;5072361;28;20408;-74
2022/06/17 09:15:37;;;;;;;33.70;8.93;;;;;;;34.37;25.76;102201.44;5073816;28;20029;-73
2022/06/17 09:18:20;;;;;;;19.17;9.73;;;;;;;32.88;27.94;102185.34;5073307;28;20128;-73
2022/06/17 09:20:49;;;;;;;14.70;9.50;;;;;;;32.53;27.01;102184.63;5074049;28;20477;-72
2022/06/17 09:23:24;;;;;;;21.65;10.13;;;;;;;32.29;28.88;102187.13;5073037;28;20048;-74
2022/06/17 09:29:22;;;;;;;16.45;9.07;;;;;;;31.87;28.94;102188.78;5074337;28;20182;-73
2022/06/17 09:31:54;;;;;;;23.38;10.90;;;;;;;32.27;27.84;102201.31;5073658;28;20471;-73
2022/06/17 09:34:26;;;;;;;;;;;;;;;32.05;28.19;102195.94;5073026;28;20044;-73
2022/06/17 09:37:01;;;;;;;;;;;;;;;31.56;30.50;102194.44;5073981;28;19916;-73
2022/06/17 09:39:41;;;;;;;29.05;9.65;;;;;;;30.10;33.52;102187.91;5054834;28;19956;-74
2022/06/17 09:42:30;;;;;;;17.65;9.52;;;;;;;29.12;34.31;102184.81;5073421;28;20490;-73
2022/06/17 09:45:07;;;;;;;14.77;8.60;;;;;;;29.09;34.78;102188.16;5054239;28;20048;-75
2022/06/17 09:47:38;;;;;;;15.50;8.57;;;;;;;28.90;35.88;102193.75;5073497;28;20052;-74
2022/06/17 09:50:15;;;;;;;20.92;9.00;;;;;;;29.22;35.14;102190.13;5072220;28;20485;-74
2022/06/17 09:52:47;;;;;;;18.42;9.45;;;;;;;28.94;33.56;102189.31;5051980;28;20044;-74
2022/06/17 09:55:23;;;;;;;16.20;8.38;;;;;;;28.75;36.38;102193.22;5073295;28;20032;-72
2022/06/17 09:57:58;;;;;;;22.35;10.02;;;;;;;28.13;37.24;102198.94;5072379;28;20131;-73
2022/06/17 10:00:30;;;;;;;14.60;9.05;;;;;;;27.61;37.21;102175.22;5072049;28;20476;-76
2022/06/17 10:03:07;;;;;;;14.63;7.78;;;;;;;27.69;37.36;102183.63;5072328;28;20125;-72
2022/06/17 10:05:42;;;;;;;23.15;7.72;;;;;;;27.45;36.85;102171.84;5073143;28;20036;-73
2022/06/17 10:08:07;;;;;;;14.00;7.47;;;;;;;27.30;37.92;102169.31;5072381;28;20405;-73
2022/06/17 10:11:01;;;;;;;16.92;8.40;;;;;;;27.62;36.34;102160.41;5073187;28;20032;-72
2022/06/17 10:14:13;;;;;;;13.38;7.80;;;;;;;27.52;37.99;102157.78;5072093;28;20040;-74
2022/06/17 10:20:29;;;;;;;20.27;8.50;;;;;;;27.59;38.11;102153.53;5071341;28;20086;-74
2022/06/17 10:23:13;;;;;;;17.85;8.65;;;;;;;27.56;39.11;102148.63;5072869;28;20511;-74
2022/06/17 10:25:46;;;;;;;13.30;7.90;;;;;;;27.90;38.25;102148.41;5072010;28;20477;-73
2022/06/17 10:28:22;;;;;;;13.98;7.25;;;;;;;28.06;37.83;102136.06;5072887;28;20488;-72
2022/06/17 10:31:05;;;;;;;18.17;7.68;;;;;;;28.07;36.92;102140.44;5072062;28;20041;-74
2022/06/17 10:33:32;;;;;;;;;;;;;;;29.52;35.02;102143.75;5073141;28;20071;-72
2022/06/17 10:35:57;;;;;;;14.63;5.78;;;;;;;30.83;31.37;102133.25;5053951;28;20288;-73
2022/06/17 10:38:31;;;;;;;12.57;6.03;;;;;;;31.03;30.82;102145.69;5054547;28;20040;-72
2022/06/17 10:40:56;;;;;;;17.42;6.07;;;;;;;30.59;31.58;102147.44;5072610;28;20119;-72
2022/06/17 10:43:27;;;;;;;14.55;6.95;;;;;;;29.60;32.11;102143.81;5071669;28;20131;-73
2022/06/17 10:45:53;;;;;;;10.93;6.93;;;;;;;29.05;34.74;102142.25;5072513;28;20527;-74
2022/06/17 10:48:43;;;;;;;13.32;6.47;;;;;;;28.89;36.12;102141.75;5071638;28;20032;-73
2022/06/17 10:51:09;;;;;;;14.68;5.68;;;;;;;28.97;34.60;102133.59;5072449;28;20043;-75
2022/06/17 10:53:44;;;;;;;14.20;6.90;;;;;;;29.17;34.54;102131.53;5071599;28;20090;-73
2022/06/17 10:56:16;;;;;;;14.18;7.25;;;;;;;28.71;33.98;102131.63;5072356;28;20074;-73
2022/06/17 10:58:55;;;;;;;8.18;6.25;;;;;;;28.69;34.67;102132.75;5071628;28;20116;-74
2022/06/17 11:01:20;;;;;;;12.02;6.18;;;;;;;28.78;34.92;102138.34;5072280;28;20024;-73
2022/06/17 11:03:48;;;;;;;8.33;5.27;;;;;;;28.84;35.20;102134.38;5072271;28;20512;-75
2022/06/17 11:06:23;;;;;;;13.45;5.32;;;;;;;29.15;33.30;102120.81;5057541;28;20290;-73
2022/06/17 11:08:52;;;;;;;9.57;5.40;;;;;;;29.55;33.35;102121.06;5070943;28;20433;-74
2022/06/17 11:14:36;;;;;;;12.23;5.35;;;;;;;29.42;34.09;102102.59;5070409;28;20055;-71
2022/06/17 11:17:08;;;;;;;9.45;5.47;;;;;;;29.58;34.04;102101.16;5070131;28;20044;-72
2022/06/17 11:19:39;;;;;;;8.60;5.40;;;;;;;30.34;31.75;102110.25;5071998;28;20064;-73
2022/06/17 11:22:05;;;;;;;9.48;5.40;;;;;;;31.72;31.03;102102.38;5071151;28;20040;-74
2022/06/17 11:24:35;;;;;;;8.77;4.90;;;;;;;32.55;29.26;102104.78;5071933;28;20052;-73
2022/06/17 11:27:35;;;;;;;10.43;5.18;;;;;;;33.85;28.17;102095.63;5071331;28;20025;-72
2022/06/17 11:30:27;;;;;;;8.35;5.20;;;;;;;34.50;25.33;102090.34;5053483;28;20020;-74
2022/06/17 11:32:54;;;;;;;9.52;5.13;;;;;;;33.88;26.75;102083.84;5053010;28;20473;-71
2022/06/17 11:35:38;;;;;;;9.25;4.60;;;;;;;32.99;27.75;102079.66;5071817;28;20047;-73
2022/06/17 11:38:11;;;;;;;9.70;4.90;;;;;;;33.05;26.86;102089.38;5070399;28;20025;-71
2022/06/17 11:40:48;;;;;;;8.18;4.82;;;;;;;33.42;27.76;102082.09;5061708;28;20050;-74
2022/06/17 11:46:45;;;;;;;12.40;4.77;;;;;;;32.23;25.76;102078.50;5072173;28;20427;-74
2022/06/17 11:49:16;;;;;;;9.85;4.70;;;;;;;30.58;28.59;102076.75;5071651;28;20103;-74
2022/06/17 11:51:49;;;;;;;9.60;4.65;;;;;;;29.81;32.04;102072.44;5070790;28;20050;-74
2022/06/17 11:54:21;;;;;;;8.18;4.82;;;;;;;29.80;31.94;102065.31;5071533;28;20035;-73
2022/06/17 11:56:48;;;;;;;10.75;5.00;;;;;;;29.69;32.89;102050.13;5070611;28;20527;-71
2022/06/17 11:59:17;;;;;;;9.18;4.90;;;;;;;29.71;32.84;102053.38;5071212;28;20021;-72
2022/06/17 12:01:49;;;;;;;6.20;4.05;;;;;;;29.75;32.64;102057.13;5069527;28;20055;-73
2022/06/17 12:05:03;;;;;;;7.63;4.30;;;;;;;29.76;31.64;102044.16;5071819;28;20180;-71
2022/06/17 12:07:34;;;;;;;9.18;4.40;;;;;;;30.30;29.23;102040.28;5070917;28;20040;-74
2022/06/17 12:10:03;;;;;;;9.85;4.53;;;;;;;30.67;28.83;102043.69;5070091;28;20036;-73
2022/06/17 12:12:30;;;;;;;7.35;4.35;;;;;;;30.92;29.32;102039.34;5070789;28;20036;-73
2022/06/17 12:15:00;;;;;;;7.47;4.32;;;;;;;30.18;30.90;102040.06;5070834;28;20044;-73
2022/06/17 12:17:26;;;;;;;7.43;4.80;;;;;;;29.68;29.79;102031.94;5071465;28;20040;-71
2022/06/17 12:19:52;;;;;;;8.48;4.53;;;;;;;30.78;31.13;102032.00;5070361;28;20123;-74
2022/06/17 12:22:34;;;;;;;6.43;4.13;;;;;;;31.65;29.50;102032.88;5069977;28;20048;-73
2022/06/17 12:25:04;;;;;;;8.75;4.10;;;;;;;32.20;28.87;102026.56;5070354;28;20041;-74
2022/06/17 12:31:26;;;;;;;8.02;4.20;;;;;;;30.19;29.94;102022.38;5071432;28;20569;-73
2022/06/17 12:37:41;;;;;;;7.78;3.90;;;;;;;30.53;28.60;102022.50;5071240;28;20515;-77
2022/06/17 12:43:56;;;;;;;6.68;3.75;;;;;;;32.94;27.15;102020.47;5073533;28;20078;-73
2022/06/17 12:46:36;;;;;;;4.65;3.63;;;;;;;31.99;26.40;102014.56;5074288;28;20594;-73
2022/06/17 12:55:28;;;;;;;9.40;3.50;;;;;;;30.64;29.03;102006.47;5074568;28;20107;-73
2022/06/17 13:01:24;;;;;;;8.02;3.55;;;;;;;30.64;30.55;102003.69;5074804;28;20044;-73
2022/06/17 13:04:20;;;;;;;7.38;3.95;;;;;;;30.58;31.50;102004.97;5073347;28;20043;-73
2022/06/17 13:07:11;;;;;;;7.85;3.67;;;;;;;30.57;30.14;102000.56;5052654;28;20048;-76
2022/06/17 13:16:26;;;;;;;8.73;3.50;;;;;;;30.57;32.25;101981.25;5074532;28;20067;-73
2022/06/17 13:22:52;;;;;;;5.45;3.47;;;;;;;30.81;30.06;101973.34;5073954;28;20044;-72
2022/06/17 13:29:06;;;;;;;7.82;3.42;;;;;;;30.86;31.43;101975.13;5074068;28;20073;-72
2022/06/17 13:31:49;;;;;;;10.00;3.60;;;;;;;30.88;31.67;101975.63;5073790;28;20465;-73
2022/06/17 13:37:29;;;;;;;7.45;3.33;;;;;;;31.09;28.79;101965.56;5073808;28;19978;-75
2022/06/17 13:40:04;;;;;;;7.70;3.70;;;;;;;31.17;32.23;101961.19;5072742;28;20071;-74
2022/06/17 13:42:31;;;;;;;6.50;3.85;;;;;;;30.99;32.36;101970.59;5073634;28;20037;-75
2022/06/17 13:45:17;;;;;;;8.02;3.35;;;;;;;30.95;32.03;101961.34;5072933;28;20396;-71
2022/06/17 13:48:00;;;;;;;5.07;3.25;;;;;;;30.80;31.68;101949.63;5072875;28;20447;-72
2022/06/17 13:54:06;;;;;;;7.18;3.60;;;;;;;31.02;31.06;101942.31;5073600;28;20403;-72
2022/06/17 13:59:57;;;;;;;11.80;3.90;;;;;;;30.78;33.06;101938.09;5073800;28;20043;-75
2022/06/17 14:02:51;;;;;;;8.75;4.10;;;;;;;30.70;33.53;101930.63;5072383;28;20044;-76
2022/06/17 14:12:01;;;;;;;5.65;3.45;;;;;;;30.38;32.63;101920.81;5073258;28;20044;-76
2022/06/17 14:14:29;;;;;;;15.82;4.22;;;;;;;30.51;32.11;101932.84;5054820;28;20044;-77
2022/06/17 14:17:03;;;;;;;5.97;3.78;;;;;;;30.47;36.08;101935.44;5073164;28;20028;-77
2022/06/17 14:19:37;;;;;;;7.78;3.42;;;;;;;30.47;36.53;101938.19;5072299;28;20041;-76
2022/06/17 14:25:44;;;;;;;5.00;3.63;;;;;;;30.47;33.38;101926.34;5073041;28;20073;-74
2022/06/17 14:31:35;;;;;;;6.03;3.50;;;;;;;30.41;33.91;101922.09;5073292;28;20070;-77
2022/06/17 14:34:16;;;;;;;6.53;3.75;;;;;;;30.58;33.04;101918.53;5072778;28;20055;-75
2022/06/17 14:36:48;;;;;;;9.32;3.42;;;;;;;30.69;32.38;101929.00;5072032;28;20074;-76
2022/06/17 14:39:29;;;;;;;6.78;3.83;;;;;;;30.78;34.18;101920.72;5072659;28;20072;-79
2022/06/17 14:42:20;;;;;;;6.95;3.70;;;;;;;30.88;33.10;101920.38;5072456;28;20032;-75
2022/06/17 14:48:10;;;;;;;7.50;3.55;;;;;;;30.86;31.90;101921.84;5072223;28;20499;-77
2022/06/17 14:54:00;;;;;;;6.38;3.38;;;;;;;30.92;32.32;101899.25;5072911;28;20562;-74
2022/06/17 14:59:47;;;;;;;6.15;3.40;;;;;;;30.84;34.73;101902.81;5072531;28;20043;-76
2022/06/17 15:05:39;;;;;;;10.93;3.80;;;;;;;30.71;33.06;101895.53;5072456;28;20050;-79
2022/06/17 15:11:29;;;;;;;8.23;3.72;;;;;;;30.51;34.77;101886.72;5072922;28;20036;-75
2022/06/17 15:17:40;;;;;;;8.23;3.15;;;;;;;30.62;33.64;101875.38;5072540;28;20052;-77
2022/06/17 15:24:00;;;;;;;5.15;3.60;;;;;;;30.83;32.62;101863.34;5072219;28;20036;-76
2022/06/17 15:27:03;;;;;;;40.03;5.70;;;;;;;30.86;35.57;101861.88;5054044;28;20036;-76
2022/06/17 15:29:29;;;;;;;7.78;3.70;;;;;;;30.64;35.11;101868.38;5061262;28;20161;-78
2022/06/17 15:35:29;;;;;;;6.43;4.35;;;;;;;30.70;33.99;101841.44;5072114;28;20089;-76
2022/06/17 15:41:30;;;;;;;7.00;3.53;;;;;;;30.91;34.37;101858.13;5072101;28;20125;-77
2022/06/17 15:44:13;;;;;;;5.90;3.60;;;;;;;30.71;34.06;101837.53;5071655;28;20103;-73
2022/06/17 15:46:39;;;;;;;6.45;4.10;;;;;;;30.73;35.00;101843.53;5053076;28;20464;-78
2022/06/17 15:49:14;;;;;;;6.88;4.45;;;;;;;30.67;35.52;101842.09;5053640;28;20028;-74
2022/06/17 15:55:04;;;;;;;10.10;4.00;;;;;;;30.28;35.76;101841.03;5071928;28;20074;-76
2022/06/17 16:00:56;;;;;;;6.85;4.07;;;;;;;30.57;36.50;101837.66;5072048;28;20051;-75
2022/06/17 16:03:28;;;;;;;9.43;4.10;;;;;;;30.73;34.30;101832.50;5053450;28;20043;-77